createdAt,value
2018-02-18T00:00:15.093Z,19.90
2018-02-18T00:02:42.494Z,17.73
2018-02-18T00:05:09.890Z,19.77
2018-02-18T00:07:37.336Z,22.77
2018-02-18T00:10:04.739Z,26.60
2018-02-18T00:12:32.127Z,18.73
2018-02-18T00:15:11.290Z,25.27
2018-02-18T00:17:38.684Z,17.83
2018-02-18T00:20:06.135Z,17.83
2018-02-18T00:22:33.543Z,19.27
2018-02-18T00:25:00.935Z,32.13
2018-02-18T00:27:28.315Z,17.63
2018-02-18T00:29:55.723Z,22.60
2018-02-18T00:32:23.112Z,19.70
2018-02-18T00:34:50.514Z,23.07
2018-02-18T00:37:17.907Z,36.83
2018-02-18T00:39:45.314Z,27.93
2018-02-18T00:42:12.710Z,12.07
2018-02-18T00:44:40.555Z,21.17
2018-02-18T00:47:07.947Z,28.20
2018-02-18T00:49:35.345Z,19.07
2018-02-18T00:52:02.736Z,25.03
2018-02-18T00:54:30.130Z,14.80
2018-02-18T00:56:57.524Z,18.97
2018-02-18T00:59:24.905Z,24.73
2018-02-18T01:01:52.299Z,18.13
2018-02-18T01:04:19.698Z,23.30
2018-02-18T01:06:47.087Z,17.73
2018-02-18T01:09:14.511Z,24.87
2018-02-18T01:11:41.925Z,22.90
2018-02-18T01:14:09.422Z,16.33
2018-02-18T01:16:36.831Z,26.50
2018-02-18T01:19:04.233Z,23.80
2018-02-18T01:21:31.618Z,33.70
2018-02-18T01:23:59.016Z,24.47
2018-02-18T01:26:26.421Z,22.33
2018-02-18T01:28:53.815Z,25.93
2018-02-18T01:31:21.215Z,28.57
2018-02-18T01:33:48.658Z,21.70
2018-02-18T01:36:16.046Z,24.03
2018-02-18T01:38:43.430Z,21.27
2018-02-18T01:41:10.832Z,14.47
2018-02-18T01:43:38.275Z,15.33
2018-02-18T01:46:05.700Z,23.90
2018-02-18T01:48:33.153Z,29.87
2018-02-18T01:51:00.498Z,25.93
2018-02-18T01:53:27.892Z,17.17
2018-02-18T01:55:55.298Z,18.83
2018-02-18T01:58:22.691Z,13.53
2018-02-18T02:00:50.167Z,18.30
2018-02-18T02:03:17.622Z,15.63
2018-02-18T02:05:45.027Z,24.23
2018-02-18T02:08:12.406Z,21.37
2018-02-18T02:10:39.802Z,21.83
2018-02-18T02:13:07.191Z,29.07
2018-02-18T02:15:34.586Z,21.30
2018-02-18T02:18:01.980Z,24.00
2018-02-18T02:20:29.379Z,18.20
2018-02-18T02:22:56.771Z,15.40
2018-02-18T02:25:24.233Z,19.93
2018-02-18T02:27:51.608Z,14.17
2018-02-18T02:30:18.999Z,18.13
2018-02-18T02:32:46.390Z,16.27
2018-02-18T02:35:13.786Z,21.40
2018-02-18T02:37:41.197Z,17.20
2018-02-18T02:40:08.659Z,16.03
2018-02-18T02:42:36.045Z,15.57
2018-02-18T02:45:03.443Z,14.13
2018-02-18T02:47:30.837Z,20.30
2018-02-18T02:49:58.231Z,25.30
2018-02-18T02:52:25.622Z,16.90
2018-02-18T02:54:53.048Z,15.37
2018-02-18T02:57:20.543Z,17.60
2018-02-18T02:59:47.998Z,23.00
2018-02-18T03:02:15.447Z,24.50
2018-02-18T03:04:42.913Z,26.70
2018-02-18T03:07:10.304Z,16.90
2018-02-18T03:09:37.690Z,25.73
2018-02-18T03:12:05.088Z,19.93
2018-02-18T03:14:32.474Z,17.50
2018-02-18T03:16:59.875Z,26.03
2018-02-18T03:19:27.366Z,12.27
2018-02-18T03:21:54.759Z,16.70
2018-02-18T03:24:22.161Z,18.70
2018-02-18T03:26:49.565Z,17.70
2018-02-18T03:29:16.951Z,17.57
2018-02-18T03:31:44.344Z,15.73
2018-02-18T03:34:11.726Z,23.33
2018-02-18T03:36:39.144Z,15.17
2018-02-18T03:39:06.534Z,19.67
2018-02-18T03:41:33.962Z,19.67
2018-02-18T03:44:01.352Z,15.20
2018-02-18T03:46:28.738Z,13.90
2018-02-18T03:48:56.226Z,13.77
2018-02-18T03:51:23.990Z,17.50
2018-02-18T03:53:51.431Z,15.70
2018-02-18T03:56:18.827Z,19.67
2018-02-18T03:58:46.263Z,13.80
2018-02-18T04:01:13.719Z,15.03
2018-02-18T04:03:41.115Z,16.47
2018-02-18T04:06:08.503Z,9.93
2018-02-18T04:08:35.987Z,11.57
2018-02-18T04:11:03.382Z,12.53
2018-02-18T04:13:30.771Z,14.80
2018-02-18T04:15:58.252Z,13.93
2018-02-18T04:18:25.701Z,20.80
2018-02-18T04:20:53.086Z,16.67
2018-02-18T04:23:20.511Z,13.70
2018-02-18T04:25:47.966Z,20.77
2018-02-18T04:28:15.422Z,20.73
2018-02-18T04:30:42.831Z,23.73
2018-02-18T04:33:10.218Z,19.40
2018-02-18T04:35:37.686Z,16.77
2018-02-18T04:38:05.076Z,20.63
2018-02-18T04:40:32.516Z,15.90
2018-02-18T04:42:59.988Z,14.70
2018-02-18T04:45:27.439Z,26.17
2018-02-18T04:47:54.834Z,16.90
2018-02-18T04:50:22.227Z,21.57
2018-02-18T04:52:49.705Z,11.03
2018-02-18T04:55:17.102Z,21.53
2018-02-18T04:57:44.519Z,21.20
2018-02-18T05:00:11.974Z,28.73
2018-02-18T05:02:39.439Z,13.83
2018-02-18T05:05:06.829Z,15.70
2018-02-18T05:07:34.221Z,19.70
2018-02-18T05:10:01.617Z,10.20
2018-02-18T05:12:29.019Z,16.80
2018-02-18T05:14:56.462Z,11.83
2018-02-18T05:17:23.914Z,16.90
2018-02-18T05:19:51.372Z,12.13
2018-02-18T05:22:18.774Z,12.07
2018-02-18T05:24:46.166Z,17.87
2018-02-18T05:27:14.461Z,15.93
2018-02-18T05:29:42.739Z,15.17
2018-02-18T05:32:10.196Z,11.90
2018-02-18T05:34:37.586Z,9.00
2018-02-18T05:37:04.996Z,11.43
2018-02-18T05:39:32.378Z,9.87
2018-02-18T05:42:00.214Z,10.97
2018-02-18T05:44:27.604Z,12.10
2018-02-18T05:46:55.025Z,14.03
2018-02-18T05:49:22.478Z,27.87
2018-02-18T05:51:49.872Z,9.53
2018-02-18T05:54:17.277Z,15.63
2018-02-18T05:56:44.679Z,21.03
2018-02-18T05:59:12.075Z,17.17
2018-02-18T06:01:39.555Z,13.23
2018-02-18T06:04:06.951Z,11.30
2018-02-18T06:06:34.386Z,19.57
2018-02-18T06:09:01.762Z,8.60
2018-02-18T06:11:29.179Z,17.37
2018-02-18T06:13:56.655Z,15.73
2018-02-18T06:16:24.054Z,10.10
2018-02-18T06:18:51.439Z,11.03
2018-02-18T06:21:18.838Z,10.47
2018-02-18T06:23:47.227Z,13.00
2018-02-18T06:26:14.631Z,14.53
2018-02-18T06:28:42.021Z,18.53
2018-02-18T06:31:09.452Z,11.97
2018-02-18T06:33:36.902Z,18.80
2018-02-18T06:36:04.350Z,13.00
2018-02-18T06:38:31.747Z,15.13
2018-02-18T06:40:59.264Z,19.63
2018-02-18T06:43:26.658Z,15.43
2018-02-18T06:45:54.047Z,12.23
2018-02-18T06:48:21.453Z,12.70
2018-02-18T06:50:48.861Z,10.50
2018-02-18T06:53:16.320Z,15.50
2018-02-18T06:55:43.718Z,13.00
2018-02-18T06:58:11.111Z,9.20
2018-02-18T07:00:38.512Z,11.70
2018-02-18T07:03:05.902Z,15.73
2018-02-18T07:05:33.306Z,9.90
2018-02-18T07:08:00.710Z,11.07
2018-02-18T07:10:28.110Z,12.17
2018-02-18T07:12:55.507Z,26.93
2018-02-18T07:15:23.107Z,12.53
2018-02-18T07:17:50.502Z,10.40
2018-02-18T07:20:17.947Z,8.80
2018-02-18T07:22:46.215Z,6.13
2018-02-18T07:25:13.623Z,6.03
2018-02-18T07:27:40.991Z,8.60
2018-02-18T07:30:08.486Z,6.87
2018-02-18T07:32:35.874Z,13.93
2018-02-18T07:35:03.273Z,10.10
2018-02-18T07:37:30.662Z,9.70
2018-02-18T07:39:58.159Z,7.07
2018-02-18T07:42:25.607Z,9.10
2018-02-18T07:44:53.067Z,15.27
2018-02-18T07:47:20.470Z,18.23
2018-02-18T07:49:47.891Z,20.33
2018-02-18T07:52:15.275Z,16.83
2018-02-18T07:54:42.668Z,24.50
2018-02-18T07:57:10.062Z,14.47
2018-02-18T07:59:37.509Z,19.80
2018-02-18T08:02:04.954Z,18.20
2018-02-18T08:04:32.424Z,18.07
2018-02-18T08:06:59.806Z,19.30
2018-02-18T08:09:27.220Z,14.33
2018-02-18T08:11:54.628Z,21.17
2018-02-18T08:14:22.019Z,11.83
2018-02-18T08:16:49.416Z,13.07
2018-02-18T08:19:16.814Z,14.60
2018-02-18T08:21:44.308Z,10.90
2018-02-18T08:24:11.750Z,11.97
2018-02-18T08:26:39.208Z,18.13
2018-02-18T08:29:06.602Z,19.10
2018-02-18T08:31:34.022Z,13.33
2018-02-18T08:34:01.419Z,14.40
2018-02-18T08:36:28.815Z,13.13
2018-02-18T08:38:56.207Z,10.00
2018-02-18T08:41:23.643Z,8.27
2018-02-18T08:43:51.035Z,9.90
2018-02-18T08:46:18.455Z,7.57
2018-02-18T08:48:45.843Z,9.83
2018-02-18T08:51:13.262Z,10.07
2018-02-18T08:53:40.718Z,8.40
2018-02-18T08:56:08.158Z,11.43
2018-02-18T08:58:35.511Z,9.50
2018-02-18T09:01:02.917Z,11.27
2018-02-18T09:03:30.344Z,12.30
2018-02-18T09:05:57.725Z,5.73
2018-02-18T09:08:25.118Z,7.50
2018-02-18T09:10:52.503Z,7.67
2018-02-18T09:13:19.894Z,6.77
2018-02-18T09:15:47.315Z,6.80
2018-02-18T09:18:14.775Z,12.07
2018-02-18T09:20:42.227Z,15.10
2018-02-18T09:23:09.623Z,16.23
2018-02-18T09:25:37.018Z,18.30
2018-02-18T09:28:04.419Z,11.57
2018-02-18T09:30:31.799Z,8.17
2018-02-18T09:32:59.306Z,8.40
2018-02-18T09:35:26.715Z,13.57
2018-02-18T09:37:54.106Z,8.37
2018-02-18T09:40:21.492Z,8.43
2018-02-18T09:42:48.903Z,10.30
2018-02-18T09:45:16.294Z,9.97
2018-02-18T09:47:43.678Z,9.37
2018-02-18T09:50:11.100Z,11.03
2018-02-18T09:52:38.474Z,7.20
2018-02-18T09:55:05.907Z,9.43
2018-02-18T09:57:33.368Z,9.77
2018-02-18T10:00:00.760Z,9.53
2018-02-18T10:02:28.146Z,12.63
2018-02-18T10:04:55.546Z,17.30
2018-02-18T10:07:22.934Z,11.57
2018-02-18T10:09:50.333Z,7.37
2018-02-18T10:12:17.723Z,6.27
2018-02-18T10:14:45.428Z,11.43
2018-02-18T10:17:12.936Z,6.60
2018-02-18T10:19:40.319Z,13.57
2018-02-18T10:22:07.755Z,13.97
2018-02-18T10:24:35.142Z,12.27
2018-02-18T10:27:02.535Z,10.53
2018-02-18T10:29:29.931Z,8.30
2018-02-18T10:31:57.339Z,13.50
2018-02-18T10:34:24.726Z,8.63
2018-02-18T10:36:52.165Z,12.37
2018-02-18T10:39:19.530Z,16.40
2018-02-18T10:41:46.919Z,11.83
2018-02-18T10:44:15.151Z,14.10
2018-02-18T10:46:42.611Z,12.70
2018-02-18T10:49:10.070Z,9.67
2018-02-18T10:51:37.452Z,7.00
2018-02-18T10:54:04.839Z,8.77
2018-02-18T10:56:32.327Z,13.70
2018-02-18T10:58:59.718Z,15.37
2018-02-18T11:01:27.115Z,8.67
2018-02-18T11:03:54.604Z,16.03
2018-02-18T11:06:22.000Z,15.17
2018-02-18T11:08:49.391Z,9.57
2018-02-18T11:11:16.778Z,9.17
2018-02-18T11:13:44.171Z,11.93
2018-02-18T11:16:11.571Z,12.90
2018-02-18T11:18:39.040Z,14.33
2018-02-18T11:21:06.444Z,9.17
2018-02-18T11:23:33.834Z,8.67
2018-02-18T11:26:01.310Z,14.80
2018-02-18T11:28:28.710Z,17.70
2018-02-18T11:30:56.096Z,5.70
2018-02-18T11:33:23.507Z,12.07
2018-02-18T11:35:50.910Z,10.43
2018-02-18T11:38:18.291Z,9.43
2018-02-18T11:40:45.682Z,14.40
2018-02-18T11:43:13.073Z,8.60
2018-02-18T11:45:40.458Z,9.57
2018-02-18T11:48:07.847Z,6.37
2018-02-18T11:50:35.330Z,9.67
2018-02-18T11:53:02.723Z,8.70
2018-02-18T11:55:30.148Z,17.40
2018-02-18T11:57:57.536Z,11.13
2018-02-18T12:00:24.952Z,13.10
2018-02-18T12:02:52.365Z,15.30
2018-02-18T12:05:19.774Z,11.17
2018-02-18T12:07:47.176Z,16.43
2018-02-18T12:10:14.558Z,11.67
2018-02-18T12:12:41.967Z,15.70
2018-02-18T12:15:09.351Z,16.07
2018-02-18T12:17:36.747Z,11.23
2018-02-18T12:20:04.196Z,19.33
2018-02-18T12:22:31.674Z,14.97
2018-02-18T12:24:59.055Z,11.07
2018-02-18T12:27:26.450Z,11.37
2018-02-18T12:29:53.911Z,17.80
2018-02-18T12:32:21.318Z,13.00
2018-02-18T12:34:48.699Z,19.00
2018-02-18T12:37:16.096Z,14.50
2018-02-18T12:39:43.491Z,18.73
2018-02-18T12:42:10.887Z,12.17
2018-02-18T12:44:38.310Z,19.50
2018-02-18T12:47:05.687Z,12.83
2018-02-18T12:49:33.171Z,13.83
2018-02-18T12:52:00.623Z,9.03
2018-02-18T12:54:28.007Z,16.53
2018-02-18T12:56:55.435Z,14.47
2018-02-18T12:59:22.818Z,11.87
2018-02-18T13:01:50.209Z,23.77
2018-02-18T13:04:17.596Z,9.53
2018-02-18T13:06:45.046Z,12.13
2018-02-18T13:09:12.442Z,24.63
2018-02-18T13:11:39.852Z,11.13
2018-02-18T13:14:07.234Z,12.87
2018-02-18T13:16:34.610Z,12.13
2018-02-18T13:19:02.003Z,14.70
2018-02-18T13:21:29.391Z,11.30
2018-02-18T13:23:56.791Z,11.50
2018-02-18T13:26:24.194Z,13.43
2018-02-18T13:28:51.674Z,15.53
2018-02-18T13:31:19.050Z,11.37
2018-02-18T13:33:46.451Z,15.80
2018-02-18T13:36:13.943Z,12.57
2018-02-18T13:38:41.339Z,17.40
2018-02-18T13:41:08.741Z,10.03
2018-02-18T13:43:36.198Z,12.33
2018-02-18T13:46:03.586Z,13.10
2018-02-18T13:48:30.974Z,16.23
2018-02-18T13:50:58.463Z,17.63
2018-02-18T13:53:25.875Z,14.73
2018-02-18T13:55:53.294Z,14.33
2018-02-18T13:58:20.707Z,15.20
2018-02-18T14:00:48.102Z,16.87
2018-02-18T14:03:15.539Z,18.77
2018-02-18T14:05:42.922Z,17.23
2018-02-18T14:08:10.327Z,23.30
2018-02-18T14:10:37.714Z,19.17
2018-02-18T14:13:05.099Z,14.00
2018-02-18T14:15:32.494Z,22.60
2018-02-18T14:18:00.051Z,17.47
2018-02-18T14:20:27.564Z,13.87
2018-02-18T14:22:54.950Z,17.77
2018-02-18T14:25:22.432Z,12.40
2018-02-18T14:27:49.810Z,13.93
2018-02-18T14:30:17.267Z,18.07
2018-02-18T14:32:44.723Z,15.93
2018-02-18T14:35:12.147Z,14.30
2018-02-18T14:37:39.531Z,15.30
2018-02-18T14:40:06.922Z,17.80
2018-02-18T14:42:46.018Z,16.23
2018-02-18T14:45:25.458Z,19.63
2018-02-18T14:51:04.512Z,15.53
2018-02-18T14:53:43.755Z,16.37
2018-02-18T14:56:19.883Z,18.63
2018-02-18T14:58:47.272Z,14.97
2018-02-18T15:01:14.671Z,17.73
2018-02-18T15:03:42.058Z,16.43
2018-02-18T15:06:09.452Z,21.77
2018-02-18T15:08:36.863Z,17.27
2018-02-18T15:11:04.270Z,19.47
2018-02-18T15:13:31.690Z,16.50
2018-02-18T15:15:59.106Z,19.63
2018-02-18T15:18:26.488Z,16.63
2018-02-18T15:20:53.887Z,18.00
2018-02-18T15:23:21.295Z,23.20
2018-02-18T15:25:48.747Z,23.83
2018-02-18T15:28:16.315Z,20.40
2018-02-18T15:30:43.779Z,16.60
2018-02-18T15:33:11.166Z,18.30
2018-02-18T15:35:38.571Z,18.77
2018-02-18T15:38:05.964Z,26.70
2018-02-18T15:40:33.395Z,20.47
2018-02-18T15:43:00.871Z,21.20
2018-02-18T15:45:28.328Z,23.00
2018-02-18T15:47:55.747Z,21.60
2018-02-18T15:50:23.136Z,16.30
2018-02-18T15:52:50.594Z,16.80
2018-02-18T15:55:17.984Z,17.47
2018-02-18T15:57:45.383Z,21.80
2018-02-18T16:00:12.790Z,20.30
2018-02-18T16:02:40.213Z,16.33
2018-02-18T16:05:07.599Z,20.73
2018-02-18T16:07:35.002Z,16.73
2018-02-18T16:10:02.483Z,13.57
2018-02-18T16:12:29.883Z,18.07
2018-02-18T16:14:57.295Z,16.03
2018-02-18T16:17:24.687Z,18.13
2018-02-18T16:19:52.091Z,17.93
2018-02-18T16:22:19.563Z,20.43
2018-02-18T16:24:47.019Z,14.70
2018-02-18T16:27:14.427Z,21.10
2018-02-18T16:29:41.919Z,22.53
2018-02-18T16:32:09.394Z,16.57
2018-02-18T16:34:36.847Z,17.63
2018-02-18T16:37:04.242Z,17.47
2018-02-18T16:39:31.643Z,21.73
2018-02-18T16:41:59.042Z,14.00
2018-02-18T16:44:26.442Z,19.53
2018-02-18T16:46:53.831Z,27.30
2018-02-18T16:49:21.218Z,20.33
2018-02-18T16:51:48.635Z,28.77
2018-02-18T16:54:16.022Z,22.90
2018-02-18T16:56:43.443Z,18.73
2018-02-18T16:59:10.900Z,28.20
2018-02-18T17:01:38.299Z,23.37
2018-02-18T17:04:05.691Z,25.03
2018-02-18T17:06:33.106Z,23.53
2018-02-18T17:09:00.493Z,20.77
2018-02-18T17:11:27.910Z,18.83
2018-02-18T17:13:55.294Z,21.13
2018-02-18T17:16:22.791Z,19.47
2018-02-18T17:18:50.247Z,20.57
2018-02-18T17:21:17.637Z,24.40
2018-02-18T17:23:45.075Z,18.47
2018-02-18T17:26:12.496Z,25.60
2018-02-18T17:28:39.876Z,23.27
2018-02-18T17:31:07.282Z,35.63
2018-02-18T17:33:34.673Z,28.83
2018-02-18T17:36:02.089Z,23.97
2018-02-18T17:38:29.586Z,22.60
2018-02-18T17:40:56.994Z,31.40
2018-02-18T17:43:24.402Z,20.60
2018-02-18T17:45:51.974Z,25.70
2018-02-18T17:48:19.383Z,27.53
2018-02-18T17:50:46.784Z,30.87
2018-02-18T17:53:14.193Z,26.83
2018-02-18T17:55:41.631Z,23.13
2018-02-18T17:58:11.086Z,38.40
2018-02-18T18:00:38.473Z,21.80
2018-02-18T18:03:05.877Z,32.70
2018-02-18T18:05:33.319Z,27.47
2018-02-18T18:08:00.759Z,24.50
2018-02-18T18:10:28.150Z,22.77
2018-02-18T18:12:55.575Z,25.30
2018-02-18T18:15:23.081Z,29.37
2018-02-18T18:17:50.503Z,39.23
2018-02-18T18:20:17.897Z,33.90
2018-02-18T18:22:45.294Z,32.73
2018-02-18T18:25:12.686Z,37.63
2018-02-18T18:27:40.083Z,28.63
2018-02-18T18:30:07.507Z,26.50
2018-02-18T18:32:34.898Z,24.03
2018-02-18T18:35:02.405Z,24.00
2018-02-18T18:37:29.871Z,33.60
2018-02-18T18:39:57.328Z,31.83
2018-02-18T18:42:24.785Z,35.47
2018-02-18T18:44:52.166Z,30.13
2018-02-18T18:47:19.594Z,30.50
2018-02-18T18:49:47.085Z,33.50
2018-02-18T18:52:14.460Z,32.63
2018-02-18T18:54:41.855Z,25.87
2018-02-18T18:57:09.327Z,20.40
2018-02-18T18:59:36.723Z,24.83
2018-02-18T19:02:04.239Z,22.80
2018-02-18T19:04:31.703Z,23.90
2018-02-18T19:06:59.107Z,21.67
2018-02-18T19:09:26.491Z,22.63
2018-02-18T19:11:53.886Z,20.70
2018-02-18T19:14:21.289Z,23.40
2018-02-18T19:16:48.683Z,26.80
2018-02-18T19:19:16.066Z,21.37
2018-02-18T19:21:43.471Z,22.53
2018-02-18T19:24:10.871Z,23.97
2018-02-18T19:26:38.275Z,29.77
2018-02-18T19:29:05.674Z,22.93
2018-02-18T19:31:33.068Z,27.42
2018-02-18T19:34:00.471Z,27.70
2018-02-18T19:36:27.895Z,15.57
2018-02-18T19:38:55.302Z,26.63
2018-02-18T19:41:22.695Z,20.07
2018-02-18T19:43:50.343Z,25.53
2018-02-18T19:46:17.731Z,35.97
2018-02-18T19:48:45.180Z,22.20
2018-02-18T19:51:12.575Z,27.97
2018-02-18T19:53:39.989Z,37.03
2018-02-18T19:56:07.447Z,21.87
2018-02-18T19:58:34.846Z,21.80
2018-02-18T20:01:02.273Z,21.97
2018-02-18T20:03:29.656Z,21.43
2018-02-18T20:05:57.043Z,18.13
2018-02-18T20:08:24.443Z,18.23
2018-02-18T20:10:51.831Z,17.57
2018-02-18T20:13:20.814Z,17.73
2018-02-18T20:15:48.184Z,21.93
2018-02-18T20:18:15.575Z,26.53
2018-02-18T20:20:42.966Z,19.97
2018-02-18T20:23:10.443Z,31.60
2018-02-18T20:25:37.830Z,21.77
2018-02-18T20:28:05.224Z,26.00
2018-02-18T20:30:32.703Z,22.87
2018-02-18T20:33:00.105Z,17.67
2018-02-18T20:35:27.483Z,18.13
2018-02-18T20:37:54.974Z,20.07
2018-02-18T20:40:22.435Z,26.60
2018-02-18T20:42:49.843Z,26.90
2018-02-18T20:45:17.343Z,30.13
2018-02-18T20:47:44.730Z,32.00
2018-02-18T20:50:12.151Z,24.93
2018-02-18T20:52:39.623Z,28.30
2018-02-18T20:55:07.063Z,25.70
2018-02-18T20:57:34.459Z,27.67
2018-02-18T21:00:01.858Z,36.83
2018-02-18T21:02:29.264Z,29.17
2018-02-18T21:04:56.698Z,25.43
2018-02-18T21:07:24.098Z,29.40
2018-02-18T21:09:51.507Z,23.17
2018-02-18T21:12:18.970Z,25.93
2018-02-18T21:14:47.058Z,24.87
2018-02-18T21:17:14.479Z,26.20
2018-02-18T21:19:41.875Z,28.37
2018-02-18T21:22:09.269Z,29.77
2018-02-18T21:24:36.759Z,28.70
2018-02-18T21:27:04.163Z,29.07
2018-02-18T21:29:31.661Z,30.97
2018-02-18T21:31:59.072Z,32.13
2018-02-18T21:34:26.458Z,26.20
2018-02-18T21:36:53.862Z,27.43
2018-02-18T21:39:21.244Z,32.13
2018-02-18T21:41:48.659Z,28.73
2018-02-18T21:44:16.059Z,26.50
2018-02-18T21:46:43.466Z,22.50
2018-02-18T21:49:10.935Z,38.47
2018-02-18T21:51:38.366Z,34.30
2018-02-18T21:54:05.746Z,24.60
2018-02-18T21:56:33.159Z,23.23
2018-02-18T21:59:00.647Z,28.60
2018-02-18T22:01:28.102Z,28.63
2018-02-18T22:03:55.562Z,26.27
2018-02-18T22:06:22.961Z,17.60
2018-02-18T22:08:50.346Z,22.03
2018-02-18T22:11:17.760Z,26.83
2018-02-18T22:13:45.155Z,26.00
2018-02-18T22:16:12.644Z,22.23
2018-02-18T22:18:40.043Z,18.03
2018-02-18T22:21:07.438Z,39.83
2018-02-18T22:23:34.839Z,23.93
2018-02-18T22:26:02.231Z,22.67
2018-02-18T22:28:29.662Z,16.77
2018-02-18T22:30:57.072Z,19.43
2018-02-18T22:33:24.582Z,27.67
2018-02-18T22:35:52.030Z,23.67
2018-02-18T22:38:19.431Z,18.87
2018-02-18T22:40:46.834Z,28.47
2018-02-18T22:43:14.230Z,20.40
2018-02-18T22:45:42.063Z,24.07
2018-02-18T22:48:09.471Z,19.60
2018-02-18T22:50:37.006Z,36.33
2018-02-18T22:53:04.399Z,22.47
2018-02-18T22:55:31.804Z,32.03
2018-02-18T22:57:59.195Z,19.90
2018-02-18T23:00:26.594Z,20.57
2018-02-18T23:02:54.015Z,26.90
2018-02-18T23:05:27.131Z,30.33
2018-02-18T23:07:54.609Z,21.07
2018-02-18T23:10:22.047Z,25.03
2018-02-18T23:12:49.442Z,18.93
2018-02-18T23:15:16.872Z,17.30
2018-02-18T23:17:44.333Z,19.30
2018-02-18T23:20:11.718Z,24.87
2018-02-18T23:22:39.108Z,24.30
2018-02-18T23:25:06.502Z,23.00
2018-02-18T23:27:33.908Z,23.67
2018-02-18T23:30:01.304Z,20.70
2018-02-18T23:32:28.699Z,20.57
2018-02-18T23:34:56.099Z,23.37
2018-02-18T23:37:23.499Z,19.93
2018-02-18T23:39:50.895Z,26.17
2018-02-18T23:42:18.286Z,19.13
2018-02-18T23:44:45.688Z,24.13
2018-02-18T23:47:13.075Z,25.10
2018-02-18T23:49:40.484Z,18.67
2018-02-18T23:52:07.993Z,24.40
2018-02-18T23:54:35.405Z,21.57
2018-02-18T23:57:02.819Z,22.70
2018-02-18T23:59:30.214Z,22.30
